Agana Heights, GU

3:54 AM ChST on July 24, 2014 (GMT +1000)
Maite (KGUMAITE2) Elev 140 ft | 13.48 °N, 144.76 °E | Change Station

Current weather conditions updated 2 seconds ago

Mostly Cloudy
Mostly Cloudy
77.8 °F
Feels Like 80 °F
N
3.0
Wind Variable Wind from SSE
Gusts 5.0 mph

Today is forecast to be Cooler than yesterday. Thunderstorms.

Today
High -- | Low -- °F
--% Chance of Precip.
Yesterday
High -- | Low -- °F
Precip. -- in
6:03 AM 6:51 PM
Waning Crescent, 9% visible
Pressure 29.75 in
Visibility 10.0 miles
Clouds Mostly Cloudy 1900 ft
Mostly Cloudy 2700 ft
Heat Index 80 °F
Dew Point 77 °F
Humidity 96%
Rainfall 0.02 in
Snow Depth Not available.
UV 0.0 out of 12
Pollen Not available.
Air Quality Not available.
Flu Activity Not available.
METAR PGUM 231732Z 00000KT 10SM BKN019 BKN027 26/25 A2975 RMK AO2

More Conditions Fewer Conditions

Pressure 29.75 in
Visibility 10.0 miles
Clouds Mostly Cloudy 1900 ft
Mostly Cloudy 2700 ft
Heat Index 80 °F
Dew Point 77 °F
Humidity 96%
Rainfall 0.02 in
Snow Depth Not available.
UV 0.0 out of 12
Pollen Not available.
Air Quality Not available.
Flu Activity Not available.
METAR PGUM 231732Z 00000KT 10SM BKN019 BKN027 26/25 A2975 RMK AO2

More Conditions Fewer Conditions

10-Day Weather Forecast

Almanac

Astronomy

Jul. 24, 2014 Rise Set
Actual Time 6:03 AM ChST 6:51 PM ChST
Civil Twilight 5:41 AM ChST 7:13 PM ChST
Nautical Twilight 5:14 AM ChST 7:40 PM ChST
Astronomical Twilight 4:46 AM ChST 8:07 PM ChST
Moon 3:36 AM ChST (7/24) 4:39 PM ChST (7/24)
Length of Visible Light 13h 32m
Length of Day
12h 47m
Tomorrow will be 0m 29s shorter.
Waning Crescent, 9% of the Moon is Illuminated
Jul 23
Waning Crescent
Jul 26
New
Aug 3
First Quarter
Aug 10
Full
Aug 17
Last Quarter

Community

WunderPhotos

Upload Photos

1,736,689 photos uploaded!

Nearby

Snow Depth

Station Depth Elevation
No new snow has been reported.

Earthquake Activity

City Distance Mag. Time & Date
No recent earthquake activity has been reported nearby.
Minimum magnitude displayed is 2.5.

Coastal Water Temperatures

Place Temperature
No Stations Reporting

Nearby Weather Stations

Station Location Temp. Heat Index Dew Point Humidity Wind Precip. Elev Updated Type
Maite, Maite, GU 77.8 °F 80 °F 77 °F 96% SSE  at  3.0 mph 0.00 in / hr 140 ft 3:54 AM ChST Rapid Fire
Ordot Dump, Chalan Pago Ordot 76.8 °F 77 °F 76 °F 98% West  at  0.0 mph 0.07 in / hr 282 ft 3:54 AM ChST Rapid Fire
Perezville, Tamuning, Guam 78.5 °F 82 °F 76 °F 91% ENE  at  0.0 mph 0.00 in / hr 120 ft 3:50 AM ChST Normal
Mangilao, Mangilao, GU 77.7 °F 80 °F 72 °F 84% NNE  at  0.0 mph 0.00 in / hr 361 ft 3:54 AM ChST Rapid Fire
Jeffs Pirates Cove, Guam, Ipan Talofofo, GU 78.0 °F 81 °F 76 °F 93% NNE  at  0.0 mph 0.00 in / hr 27 ft 3:54 AM ChST Rapid Fire
Ypaopao Estates, Dededo 77.7 °F 80 °F 76 °F 96% ENE  at  2.0 mph 0.00 in / hr 420 ft 3:49 AM ChST Rapid Fire

Show More Stations Show Fewer Stations